sensor_id;sensor_type;location;lat;lon;timestamp;temperature;humidity
47090;DHT22;32840;52.516;13.294;2023-09-18T00:00:41;21.20;99.90
47090;DHT22;32840;52.516;13.294;2023-09-18T00:03:27;21.20;99.90
47090;DHT22;32840;52.516;13.294;2023-09-18T00:06:12;21.20;99.90
47090;DHT22;32840;52.516;13.294;2023-09-18T00:08:57;21.10;99.90
47090;DHT22;32840;52.516;13.294;2023-09-18T00:11:42;21.10;99.90
47090;DHT22;32840;52.516;13.294;2023-09-18T00:14:27;21.10;99.90
47090;DHT22;32840;52.516;13.294;2023-09-18T00:17:12;21.10;99.90
47090;DHT22;32840;52.516;13.294;2023-09-18T00:19:58;21.10;99.90
47090;DHT22;32840;52.516;13.294;2023-09-18T00:22:43;21.10;99.90
47090;DHT22;32840;52.516;13.294;2023-09-18T00:25:28;21.10;99.90
47090;DHT22;32840;52.516;13.294;2023-09-18T00:28:13;21.00;99.90
47090;DHT22;32840;52.516;13.294;2023-09-18T00:31:01;21.10;99.90
47090;DHT22;32840;52.516;13.294;2023-09-18T00:33:46;21.00;99.90
47090;DHT22;32840;52.516;13.294;2023-09-18T00:36:31;21.00;99.90
47090;DHT22;32840;52.516;13.294;2023-09-18T00:39:16;21.00;99.90
47090;DHT22;32840;52.516;13.294;2023-09-18T00:42:01;21.00;99.90
47090;DHT22;32840;52.516;13.294;2023-09-18T00:44:46;21.00;99.90
47090;DHT22;32840;52.516;13.294;2023-09-18T00:47:32;20.90;99.90
47090;DHT22;32840;52.516;13.294;2023-09-18T00:50:16;20.90;99.90
47090;DHT22;32840;52.516;13.294;2023-09-18T00:53:02;20.90;99.90
47090;DHT22;32840;52.516;13.294;2023-09-18T00:55:47;20.90;99.90
47090;DHT22;32840;52.516;13.294;2023-09-18T00:58:33;20.90;99.90
47090;DHT22;32840;52.516;13.294;2023-09-18T01:01:19;20.90;99.90
47090;DHT22;32840;52.516;13.294;2023-09-18T01:04:07;20.80;99.90
47090;DHT22;32840;52.516;13.294;2023-09-18T01:06:52;20.80;99.90
47090;DHT22;32840;52.516;13.294;2023-09-18T01:09:38;20.80;99.90
47090;DHT22;32840;52.516;13.294;2023-09-18T01:15:22;20.80;99.90
47090;DHT22;32840;52.516;13.294;2023-09-18T01:18:11;20.80;99.90
47090;DHT22;32840;52.516;13.294;2023-09-18T01:20:55;20.80;99.90
47090;DHT22;32840;52.516;13.294;2023-09-18T01:23:40;20.70;99.90
47090;DHT22;32840;52.516;13.294;2023-09-18T01:26:25;20.70;99.90
47090;DHT22;32840;52.516;13.294;2023-09-18T01:29:10;20.70;99.90
47090;DHT22;32840;52.516;13.294;2023-09-18T01:31:55;20.60;99.90
47090;DHT22;32840;52.516;13.294;2023-09-18T01:34:46;20.60;99.90
47090;DHT22;32840;52.516;13.294;2023-09-18T01:37:31;20.60;99.90
47090;DHT22;32840;52.516;13.294;2023-09-18T01:40:17;20.50;99.90
47090;DHT22;32840;52.516;13.294;2023-09-18T01:43:03;20.60;99.90
47090;DHT22;32840;52.516;13.294;2023-09-18T01:45:47;20.50;99.90
47090;DHT22;32840;52.516;13.294;2023-09-18T01:48:32;20.50;99.90
47090;DHT22;32840;52.516;13.294;2023-09-18T01:51:17;20.50;99.90
47090;DHT22;32840;52.516;13.294;2023-09-18T01:54:02;20.40;99.90
47090;DHT22;32840;52.516;13.294;2023-09-18T01:56:48;20.50;99.90
47090;DHT22;32840;52.516;13.294;2023-09-18T01:59:33;20.40;99.90
47090;DHT22;32840;52.516;13.294;2023-09-18T02:02:18;20.40;99.90
47090;DHT22;32840;52.516;13.294;2023-09-18T02:05:03;20.30;99.90
47090;DHT22;32840;52.516;13.294;2023-09-18T02:07:48;20.30;99.90
47090;DHT22;32840;52.516;13.294;2023-09-18T02:10:33;20.30;99.90
47090;DHT22;32840;52.516;13.294;2023-09-18T02:13:18;20.20;99.90
47090;DHT22;32840;52.516;13.294;2023-09-18T02:16:04;20.20;99.90
47090;DHT22;32840;52.516;13.294;2023-09-18T02:18:49;20.20;99.90
47090;DHT22;32840;52.516;13.294;2023-09-18T02:21:35;20.10;99.90
47090;DHT22;32840;52.516;13.294;2023-09-18T02:24:20;20.10;99.90
47090;DHT22;32840;52.516;13.294;2023-09-18T02:27:05;20.10;99.90
47090;DHT22;32840;52.516;13.294;2023-09-18T02:29:50;20.10;99.90
47090;DHT22;32840;52.516;13.294;2023-09-18T02:32:38;20.10;99.90
47090;DHT22;32840;52.516;13.294;2023-09-18T02:35:22;20.10;99.90
47090;DHT22;32840;52.516;13.294;2023-09-18T02:38:07;20.10;99.90
47090;DHT22;32840;52.516;13.294;2023-09-18T02:40:52;20.10;99.90
47090;DHT22;32840;52.516;13.294;2023-09-18T02:43:38;20.10;99.90
47090;DHT22;32840;52.516;13.294;2023-09-18T02:46:23;20.10;99.90
47090;DHT22;32840;52.516;13.294;2023-09-18T02:49:08;20.00;99.90
47090;DHT22;32840;52.516;13.294;2023-09-18T02:51:53;20.00;99.90
47090;DHT22;32840;52.516;13.294;2023-09-18T02:54:38;20.00;99.90
47090;DHT22;32840;52.516;13.294;2023-09-18T02:57:23;20.00;99.90
47090;DHT22;32840;52.516;13.294;2023-09-18T03:00:08;20.00;99.90
47090;DHT22;32840;52.516;13.294;2023-09-18T03:02:54;20.00;99.90
47090;DHT22;32840;52.516;13.294;2023-09-18T03:05:40;20.00;99.90
47090;DHT22;32840;52.516;13.294;2023-09-18T03:08:24;19.90;99.90
47090;DHT22;32840;52.516;13.294;2023-09-18T03:11:13;20.00;99.90
47090;DHT22;32840;52.516;13.294;2023-09-18T03:13:58;20.00;99.90
47090;DHT22;32840;52.516;13.294;2023-09-18T03:16:43;19.90;99.90
47090;DHT22;32840;52.516;13.294;2023-09-18T03:19:27;19.90;99.90
47090;DHT22;32840;52.516;13.294;2023-09-18T03:22:12;19.90;99.90
47090;DHT22;32840;52.516;13.294;2023-09-18T03:24:57;19.90;99.90
47090;DHT22;32840;52.516;13.294;2023-09-18T03:27:42;19.90;99.90
47090;DHT22;32840;52.516;13.294;2023-09-18T03:30:27;19.90;99.90
47090;DHT22;32840;52.516;13.294;2023-09-18T03:33:12;19.90;99.90
47090;DHT22;32840;52.516;13.294;2023-09-18T03:35:57;19.90;99.90
47090;DHT22;32840;52.516;13.294;2023-09-18T03:38:43;19.80;99.90
47090;DHT22;32840;52.516;13.294;2023-09-18T03:41:28;19.80;99.90
47090;DHT22;32840;52.516;13.294;2023-09-18T03:44:18;19.70;99.90
47090;DHT22;32840;52.516;13.294;2023-09-18T03:47:03;19.70;99.90
47090;DHT22;32840;52.516;13.294;2023-09-18T03:49:48;19.70;99.90
47090;DHT22;32840;52.516;13.294;2023-09-18T03:52:33;19.70;99.90
47090;DHT22;32840;52.516;13.294;2023-09-18T03:55:18;19.60;99.90
47090;DHT22;32840;52.516;13.294;2023-09-18T03:58:06;19.60;99.90
47090;DHT22;32840;52.516;13.294;2023-09-18T04:00:51;19.50;99.90
47090;DHT22;32840;52.516;13.294;2023-09-18T04:03:36;19.60;99.90
47090;DHT22;32840;52.516;13.294;2023-09-18T04:06:23;19.60;99.90
47090;DHT22;32840;52.516;13.294;2023-09-18T04:09:11;19.60;99.90
47090;DHT22;32840;52.516;13.294;2023-09-18T04:11:56;19.60;99.90
47090;DHT22;32840;52.516;13.294;2023-09-18T04:14:41;19.50;99.90
47090;DHT22;32840;52.516;13.294;2023-09-18T04:17:26;19.50;99.90
47090;DHT22;32840;52.516;13.294;2023-09-18T04:20:11;19.50;99.90
47090;DHT22;32840;52.516;13.294;2023-09-18T04:23:17;19.50;99.90
47090;DHT22;32840;52.516;13.294;2023-09-18T04:26:02;19.50;99.90
47090;DHT22;32840;52.516;13.294;2023-09-18T04:28:47;19.50;99.90
47090;DHT22;32840;52.516;13.294;2023-09-18T04:31:32;19.50;99.90
47090;DHT22;32840;52.516;13.294;2023-09-18T04:34:17;19.50;99.90
47090;DHT22;32840;52.516;13.294;2023-09-18T04:37:02;19.40;99.90
47090;DHT22;32840;52.516;13.294;2023-09-18T04:39:48;19.30;99.90
47090;DHT22;32840;52.516;13.294;2023-09-18T04:42:33;19.30;99.90
47090;DHT22;32840;52.516;13.294;2023-09-18T04:45:18;19.30;99.90
47090;DHT22;32840;52.516;13.294;2023-09-18T04:48:03;19.20;99.90
47090;DHT22;32840;52.516;13.294;2023-09-18T04:50:50;19.20;99.90
47090;DHT22;32840;52.516;13.294;2023-09-18T04:53:35;19.20;99.90
47090;DHT22;32840;52.516;13.294;2023-09-18T04:56:20;19.20;99.90
47090;DHT22;32840;52.516;13.294;2023-09-18T04:59:04;19.20;99.90
47090;DHT22;32840;52.516;13.294;2023-09-18T05:01:49;19.30;99.90
47090;DHT22;32840;52.516;13.294;2023-09-18T05:04:34;19.30;99.90
47090;DHT22;32840;52.516;13.294;2023-09-18T05:07:19;19.40;99.90
47090;DHT22;32840;52.516;13.294;2023-09-18T05:10:06;19.30;99.90
47090;DHT22;32840;52.516;13.294;2023-09-18T05:12:51;19.40;99.90
47090;DHT22;32840;52.516;13.294;2023-09-18T05:15:42;19.40;99.90
47090;DHT22;32840;52.516;13.294;2023-09-18T05:18:27;19.30;99.90
47090;DHT22;32840;52.516;13.294;2023-09-18T05:21:13;19.30;99.90
47090;DHT22;32840;52.516;13.294;2023-09-18T05:23:58;19.20;99.90
47090;DHT22;32840;52.516;13.294;2023-09-18T05:26:43;19.20;99.90
47090;DHT22;32840;52.516;13.294;2023-09-18T05:29:28;19.20;99.90
47090;DHT22;32840;52.516;13.294;2023-09-18T05:32:13;19.20;99.90
47090;DHT22;32840;52.516;13.294;2023-09-18T05:34:58;19.30;99.90
47090;DHT22;32840;52.516;13.294;2023-09-18T05:37:47;19.40;99.90
47090;DHT22;32840;52.516;13.294;2023-09-18T05:40:32;19.40;99.90
47090;DHT22;32840;52.516;13.294;2023-09-18T05:43:17;19.40;99.90
47090;DHT22;32840;52.516;13.294;2023-09-18T05:46:02;19.50;99.90
47090;DHT22;32840;52.516;13.294;2023-09-18T05:48:47;19.60;99.90
47090;DHT22;32840;52.516;13.294;2023-09-18T05:51:32;19.60;99.90
47090;DHT22;32840;52.516;13.294;2023-09-18T05:54:18;19.60;99.90
47090;DHT22;32840;52.516;13.294;2023-09-18T05:57:03;19.70;99.90
47090;DHT22;32840;52.516;13.294;2023-09-18T05:59:48;19.60;99.90
47090;DHT22;32840;52.516;13.294;2023-09-18T06:02:33;19.70;99.90
47090;DHT22;32840;52.516;13.294;2023-09-18T06:05:19;19.70;99.90
47090;DHT22;32840;52.516;13.294;2023-09-18T06:08:06;19.70;99.90
47090;DHT22;32840;52.516;13.294;2023-09-18T06:10:51;19.80;99.90
47090;DHT22;32840;52.516;13.294;2023-09-18T06:13:36;19.70;99.90
47090;DHT22;32840;52.516;13.294;2023-09-18T06:16:22;19.80;99.90
47090;DHT22;32840;52.516;13.294;2023-09-18T06:19:07;19.80;99.90
47090;DHT22;32840;52.516;13.294;2023-09-18T06:21:51;19.90;99.90
47090;DHT22;32840;52.516;13.294;2023-09-18T06:24:37;19.90;99.90
47090;DHT22;32840;52.516;13.294;2023-09-18T06:27:22;20.00;99.90
47090;DHT22;32840;52.516;13.294;2023-09-18T06:30:08;20.00;99.90
47090;DHT22;32840;52.516;13.294;2023-09-18T06:32:53;20.00;99.90
47090;DHT22;32840;52.516;13.294;2023-09-18T06:35:38;20.00;99.90
47090;DHT22;32840;52.516;13.294;2023-09-18T06:38:24;20.10;99.90
47090;DHT22;32840;52.516;13.294;2023-09-18T06:41:09;20.10;99.90
47090;DHT22;32840;52.516;13.294;2023-09-18T06:43:54;20.10;99.90
47090;DHT22;32840;52.516;13.294;2023-09-18T06:46:39;20.20;99.90
47090;DHT22;32840;52.516;13.294;2023-09-18T06:49:24;20.20;99.90
47090;DHT22;32840;52.516;13.294;2023-09-18T06:52:09;20.20;99.90
47090;DHT22;32840;52.516;13.294;2023-09-18T06:54:54;20.30;99.90
47090;DHT22;32840;52.516;13.294;2023-09-18T06:57:39;20.30;99.90
47090;DHT22;32840;52.516;13.294;2023-09-18T07:00:25;20.30;99.90
47090;DHT22;32840;52.516;13.294;2023-09-18T07:03:10;20.40;99.90
47090;DHT22;32840;52.516;13.294;2023-09-18T07:05:56;20.40;99.90
47090;DHT22;32840;52.516;13.294;2023-09-18T07:08:43;20.50;99.90
47090;DHT22;32840;52.516;13.294;2023-09-18T07:11:27;20.50;99.90
47090;DHT22;32840;52.516;13.294;2023-09-18T07:14:12;20.60;99.90
47090;DHT22;32840;52.516;13.294;2023-09-18T07:16:57;20.60;99.90
47090;DHT22;32840;52.516;13.294;2023-09-18T07:19:43;20.70;99.90
47090;DHT22;32840;52.516;13.294;2023-09-18T07:22:28;20.80;99.90
47090;DHT22;32840;52.516;13.294;2023-09-18T07:25:14;20.80;99.90
47090;DHT22;32840;52.516;13.294;2023-09-18T07:28:00;20.90;99.90
47090;DHT22;32840;52.516;13.294;2023-09-18T07:30:45;20.90;99.90
47090;DHT22;32840;52.516;13.294;2023-09-18T07:33:29;21.00;99.90
47090;DHT22;32840;52.516;13.294;2023-09-18T07:36:14;21.10;99.90
47090;DHT22;32840;52.516;13.294;2023-09-18T07:39:00;21.20;99.90
47090;DHT22;32840;52.516;13.294;2023-09-18T07:41:45;21.30;99.90
47090;DHT22;32840;52.516;13.294;2023-09-18T07:44:30;21.40;99.90
47090;DHT22;32840;52.516;13.294;2023-09-18T07:47:14;21.60;99.90
47090;DHT22;32840;52.516;13.294;2023-09-18T07:49:59;21.60;99.90
47090;DHT22;32840;52.516;13.294;2023-09-18T07:52:44;21.90;99.90
47090;DHT22;32840;52.516;13.294;2023-09-18T07:55:32;22.20;99.90
47090;DHT22;32840;52.516;13.294;2023-09-18T07:58:17;22.60;99.90
47090;DHT22;32840;52.516;13.294;2023-09-18T08:01:02;22.90;99.90
47090;DHT22;32840;52.516;13.294;2023-09-18T08:03:50;23.20;99.90
47090;DHT22;32840;52.516;13.294;2023-09-18T08:06:35;23.40;99.90
47090;DHT22;32840;52.516;13.294;2023-09-18T08:09:20;23.70;99.90
47090;DHT22;32840;52.516;13.294;2023-09-18T08:12:06;23.90;99.90
47090;DHT22;32840;52.516;13.294;2023-09-18T08:14:51;24.20;99.90
47090;DHT22;32840;52.516;13.294;2023-09-18T08:17:36;24.30;99.90
47090;DHT22;32840;52.516;13.294;2023-09-18T08:20:21;24.50;99.90
47090;DHT22;32840;52.516;13.294;2023-09-18T08:23:06;24.70;99.90
47090;DHT22;32840;52.516;13.294;2023-09-18T08:25:51;24.70;99.90
47090;DHT22;32840;52.516;13.294;2023-09-18T08:28:39;24.80;99.90
47090;DHT22;32840;52.516;13.294;2023-09-18T08:31:28;24.90;99.90
47090;DHT22;32840;52.516;13.294;2023-09-18T08:34:16;25.10;99.90
47090;DHT22;32840;52.516;13.294;2023-09-18T08:37:04;25.20;99.90
47090;DHT22;32840;52.516;13.294;2023-09-18T08:39:50;25.30;99.90
47090;DHT22;32840;52.516;13.294;2023-09-18T08:42:36;25.30;99.90
47090;DHT22;32840;52.516;13.294;2023-09-18T08:48:28;25.60;99.50
47090;DHT22;32840;52.516;13.294;2023-09-18T08:51:19;25.70;99.50
47090;DHT22;32840;52.516;13.294;2023-09-18T08:54:06;25.90;97.90
47090;DHT22;32840;52.516;13.294;2023-09-18T08:56:52;26.00;97.80
47090;DHT22;32840;52.516;13.294;2023-09-18T08:59:39;25.90;97.40
47090;DHT22;32840;52.516;13.294;2023-09-18T09:02:25;26.00;97.40
47090;DHT22;32840;52.516;13.294;2023-09-18T09:05:10;26.10;96.90
47090;DHT22;32840;52.516;13.294;2023-09-18T09:07:55;26.00;96.30
47090;DHT22;32840;52.516;13.294;2023-09-18T09:10:41;25.90;96.30
47090;DHT22;32840;52.516;13.294;2023-09-18T09:13:26;26.10;96.10
47090;DHT22;32840;52.516;13.294;2023-09-18T09:16:12;26.20;95.60
47090;DHT22;32840;52.516;13.294;2023-09-18T09:18:57;26.30;95.50
47090;DHT22;32840;52.516;13.294;2023-09-18T09:21:43;26.30;95.50
47090;DHT22;32840;52.516;13.294;2023-09-18T09:24:41;26.30;95.20
47090;DHT22;32840;52.516;13.294;2023-09-18T09:27:26;26.30;95.00
47090;DHT22;32840;52.516;13.294;2023-09-18T09:30:11;26.30;94.40
47090;DHT22;32840;52.516;13.294;2023-09-18T09:33:04;26.30;94.30
47090;DHT22;32840;52.516;13.294;2023-09-18T09:35:49;26.40;93.80
47090;DHT22;32840;52.516;13.294;2023-09-18T09:38:35;26.40;93.20
47090;DHT22;32840;52.516;13.294;2023-09-18T09:41:20;26.40;93.00
47090;DHT22;32840;52.516;13.294;2023-09-18T09:44:06;26.40;92.60
47090;DHT22;32840;52.516;13.294;2023-09-18T09:46:51;26.30;92.70
47090;DHT22;32840;52.516;13.294;2023-09-18T09:49:47;26.40;92.70
47090;DHT22;32840;52.516;13.294;2023-09-18T09:52:35;26.40;92.90
47090;DHT22;32840;52.516;13.294;2023-09-18T09:55:28;26.40;92.80
47090;DHT22;32840;52.516;13.294;2023-09-18T09:58:13;26.40;92.70
47090;DHT22;32840;52.516;13.294;2023-09-18T10:01:06;26.40;92.90
47090;DHT22;32840;52.516;13.294;2023-09-18T10:03:58;26.50;92.90
47090;DHT22;32840;52.516;13.294;2023-09-18T10:06:45;26.50;92.90
47090;DHT22;32840;52.516;13.294;2023-09-18T10:09:38;26.50;92.70
47090;DHT22;32840;52.516;13.294;2023-09-18T10:12:24;26.60;92.40
47090;DHT22;32840;52.516;13.294;2023-09-18T10:15:12;26.60;92.40
47090;DHT22;32840;52.516;13.294;2023-09-18T10:17:58;26.60;92.00
47090;DHT22;32840;52.516;13.294;2023-09-18T10:20:46;26.60;91.60
47090;DHT22;32840;52.516;13.294;2023-09-18T10:23:41;26.40;91.80
47090;DHT22;32840;52.516;13.294;2023-09-18T10:26:35;26.40;91.70
47090;DHT22;32840;52.516;13.294;2023-09-18T10:29:23;26.40;92.10
47090;DHT22;32840;52.516;13.294;2023-09-18T10:32:09;26.40;92.20
47090;DHT22;32840;52.516;13.294;2023-09-18T10:34:54;26.50;91.90
47090;DHT22;32840;52.516;13.294;2023-09-18T10:37:41;26.60;91.50
47090;DHT22;32840;52.516;13.294;2023-09-18T10:40:28;26.70;91.30
47090;DHT22;32840;52.516;13.294;2023-09-18T10:43:16;26.70;91.10
47090;DHT22;32840;52.516;13.294;2023-09-18T10:46:02;26.80;90.90
47090;DHT22;32840;52.516;13.294;2023-09-18T10:48:47;26.70;91.00
47090;DHT22;32840;52.516;13.294;2023-09-18T10:51:32;26.60;90.90
47090;DHT22;32840;52.516;13.294;2023-09-18T10:54:27;26.50;90.90
47090;DHT22;32840;52.516;13.294;2023-09-18T10:57:12;26.40;91.30
47090;DHT22;32840;52.516;13.294;2023-09-18T10:59:58;26.30;91.20
47090;DHT22;32840;52.516;13.294;2023-09-18T11:02:42;26.40;91.10
47090;DHT22;32840;52.516;13.294;2023-09-18T11:05:32;26.40;91.00
47090;DHT22;32840;52.516;13.294;2023-09-18T11:08:28;26.40;91.40
47090;DHT22;32840;52.516;13.294;2023-09-18T11:11:13;26.50;91.20
47090;DHT22;32840;52.516;13.294;2023-09-18T11:14:11;26.40;91.00
47090;DHT22;32840;52.516;13.294;2023-09-18T11:16:56;26.40;91.10
47090;DHT22;32840;52.516;13.294;2023-09-18T11:19:41;26.30;91.30
47090;DHT22;32840;52.516;13.294;2023-09-18T11:22:29;26.40;91.40
47090;DHT22;32840;52.516;13.294;2023-09-18T11:28:26;26.40;91.50
47090;DHT22;32840;52.516;13.294;2023-09-18T11:31:11;26.40;91.70
47090;DHT22;32840;52.516;13.294;2023-09-18T11:33:56;26.40;91.60
47090;DHT22;32840;52.516;13.294;2023-09-18T11:36:42;26.40;91.40
47090;DHT22;32840;52.516;13.294;2023-09-18T11:42:21;26.40;91.50
47090;DHT22;32840;52.516;13.294;2023-09-18T11:45:16;26.30;91.80
47090;DHT22;32840;52.516;13.294;2023-09-18T11:48:01;26.20;91.80
47090;DHT22;32840;52.516;13.294;2023-09-18T11:50:48;26.20;91.90
47090;DHT22;32840;52.516;13.294;2023-09-18T11:53:36;26.10;92.20
47090;DHT22;32840;52.516;13.294;2023-09-18T11:56:23;26.00;92.90
47090;DHT22;32840;52.516;13.294;2023-09-18T11:59:08;26.00;93.40
47090;DHT22;32840;52.516;13.294;2023-09-18T12:01:54;26.00;94.20
47090;DHT22;32840;52.516;13.294;2023-09-18T12:04:46;26.00;93.70
47090;DHT22;32840;52.516;13.294;2023-09-18T12:07:32;26.00;93.40
47090;DHT22;32840;52.516;13.294;2023-09-18T12:10:19;26.10;92.70
47090;DHT22;32840;52.516;13.294;2023-09-18T12:13:08;26.10;92.50
47090;DHT22;32840;52.516;13.294;2023-09-18T12:16:03;26.20;92.20
47090;DHT22;32840;52.516;13.294;2023-09-18T12:18:50;26.30;92.40
47090;DHT22;32840;52.516;13.294;2023-09-18T12:21:46;26.30;92.30
47090;DHT22;32840;52.516;13.294;2023-09-18T12:24:32;26.40;92.40
47090;DHT22;32840;52.516;13.294;2023-09-18T12:27:17;26.60;92.30
47090;DHT22;32840;52.516;13.294;2023-09-18T12:30:04;26.70;91.90
47090;DHT22;32840;52.516;13.294;2023-09-18T12:32:52;26.70;91.40
47090;DHT22;32840;52.516;13.294;2023-09-18T12:35:37;26.70;90.90
47090;DHT22;32840;52.516;13.294;2023-09-18T12:38:24;26.60;90.70
47090;DHT22;32840;52.516;13.294;2023-09-18T12:41:12;26.40;91.10
47090;DHT22;32840;52.516;13.294;2023-09-18T12:43:57;26.30;91.00
47090;DHT22;32840;52.516;13.294;2023-09-18T12:46:44;26.20;90.70
47090;DHT22;32840;52.516;13.294;2023-09-18T12:49:30;26.10;90.90
47090;DHT22;32840;52.516;13.294;2023-09-18T12:52:22;26.10;91.10
47090;DHT22;32840;52.516;13.294;2023-09-18T12:55:07;26.10;91.40
47090;DHT22;32840;52.516;13.294;2023-09-18T12:57:53;26.00;91.10
47090;DHT22;32840;52.516;13.294;2023-09-18T13:00:48;26.00;91.40
47090;DHT22;32840;52.516;13.294;2023-09-18T13:03:41;26.00;91.40
47090;DHT22;32840;52.516;13.294;2023-09-18T13:06:29;25.90;91.50
47090;DHT22;32840;52.516;13.294;2023-09-18T13:09:18;25.90;91.60
47090;DHT22;32840;52.516;13.294;2023-09-18T13:12:08;25.80;92.00
47090;DHT22;32840;52.516;13.294;2023-09-18T13:15:03;25.70;92.70
47090;DHT22;32840;52.516;13.294;2023-09-18T13:17:59;25.70;93.20
47090;DHT22;32840;52.516;13.294;2023-09-18T13:20:45;25.70;93.60
47090;DHT22;32840;52.516;13.294;2023-09-18T13:23:31;25.70;93.70
47090;DHT22;32840;52.516;13.294;2023-09-18T13:26:17;25.60;93.20
47090;DHT22;32840;52.516;13.294;2023-09-18T13:29:02;25.60;93.20
47090;DHT22;32840;52.516;13.294;2023-09-18T13:31:47;25.60;93.20
47090;DHT22;32840;52.516;13.294;2023-09-18T13:34:32;25.60;93.40
47090;DHT22;32840;52.516;13.294;2023-09-18T13:37:17;25.50;94.80
47090;DHT22;32840;52.516;13.294;2023-09-18T13:40:06;25.40;96.00
47090;DHT22;32840;52.516;13.294;2023-09-18T13:42:52;25.30;97.30
47090;DHT22;32840;52.516;13.294;2023-09-18T13:45:37;25.30;98.20
47090;DHT22;32840;52.516;13.294;2023-09-18T13:48:22;25.20;99.00
47090;DHT22;32840;52.516;13.294;2023-09-18T13:51:07;25.10;99.90
47090;DHT22;32840;52.516;13.294;2023-09-18T13:53:54;25.00;99.20
47090;DHT22;32840;52.516;13.294;2023-09-18T13:56:41;24.90;99.60
47090;DHT22;32840;52.516;13.294;2023-09-18T13:59:25;24.90;99.40
47090;DHT22;32840;52.516;13.294;2023-09-18T14:02:12;24.90;99.20
47090;DHT22;32840;52.516;13.294;2023-09-18T14:04:57;24.90;98.70
47090;DHT22;32840;52.516;13.294;2023-09-18T14:07:45;25.00;99.30
47090;DHT22;32840;52.516;13.294;2023-09-18T14:10:32;25.00;99.90
47090;DHT22;32840;52.516;13.294;2023-09-18T14:13:17;25.10;99.80
47090;DHT22;32840;52.516;13.294;2023-09-18T14:16:02;25.00;99.70
47090;DHT22;32840;52.516;13.294;2023-09-18T14:18:48;25.10;99.30
47090;DHT22;32840;52.516;13.294;2023-09-18T14:21:33;25.10;99.70
47090;DHT22;32840;52.516;13.294;2023-09-18T14:24:21;25.20;99.40
47090;DHT22;32840;52.516;13.294;2023-09-18T14:27:06;25.10;99.60
47090;DHT22;32840;52.516;13.294;2023-09-18T14:29:52;25.10;99.90
47090;DHT22;32840;52.516;13.294;2023-09-18T14:32:37;25.10;99.40
47090;DHT22;32840;52.516;13.294;2023-09-18T14:35:22;25.00;99.30
47090;DHT22;32840;52.516;13.294;2023-09-18T14:38:08;24.90;99.10
47090;DHT22;32840;52.516;13.294;2023-09-18T14:40:53;24.90;99.10
47090;DHT22;32840;52.516;13.294;2023-09-18T14:43:38;24.90;98.50
47090;DHT22;32840;52.516;13.294;2023-09-18T14:46:23;24.80;98.30
47090;DHT22;32840;52.516;13.294;2023-09-18T14:49:08;24.80;98.80
47090;DHT22;32840;52.516;13.294;2023-09-18T14:51:54;24.80;98.60
47090;DHT22;32840;52.516;13.294;2023-09-18T14:54:40;24.70;98.50
47090;DHT22;32840;52.516;13.294;2023-09-18T14:57:25;24.70;98.90
47090;DHT22;32840;52.516;13.294;2023-09-18T15:00:12;24.70;99.10
47090;DHT22;32840;52.516;13.294;2023-09-18T15:02:57;24.70;98.40
47090;DHT22;32840;52.516;13.294;2023-09-18T15:05:44;24.80;98.40
47090;DHT22;32840;52.516;13.294;2023-09-18T15:08:29;24.80;98.50
47090;DHT22;32840;52.516;13.294;2023-09-18T15:11:14;24.80;98.00
47090;DHT22;32840;52.516;13.294;2023-09-18T15:14:02;24.80;97.90
47090;DHT22;32840;52.516;13.294;2023-09-18T15:16:47;24.80;97.80
47090;DHT22;32840;52.516;13.294;2023-09-18T15:19:34;24.80;97.70
47090;DHT22;32840;52.516;13.294;2023-09-18T15:22:19;24.80;97.80
47090;DHT22;32840;52.516;13.294;2023-09-18T15:25:04;24.70;97.80
47090;DHT22;32840;52.516;13.294;2023-09-18T15:27:49;24.70;98.00
47090;DHT22;32840;52.516;13.294;2023-09-18T15:30:34;24.70;98.20
47090;DHT22;32840;52.516;13.294;2023-09-18T15:33:20;24.60;98.40
47090;DHT22;32840;52.516;13.294;2023-09-18T15:36:09;24.50;98.60
47090;DHT22;32840;52.516;13.294;2023-09-18T15:38:54;24.50;98.70
47090;DHT22;32840;52.516;13.294;2023-09-18T15:41:41;24.50;99.10
47090;DHT22;32840;52.516;13.294;2023-09-18T15:44:26;24.40;99.00
47090;DHT22;32840;52.516;13.294;2023-09-18T15:47:13;24.40;99.50
47090;DHT22;32840;52.516;13.294;2023-09-18T15:49:58;24.40;99.40
47090;DHT22;32840;52.516;13.294;2023-09-18T15:52:45;24.30;99.20
47090;DHT22;32840;52.516;13.294;2023-09-18T15:55:30;24.30;99.60
47090;DHT22;32840;52.516;13.294;2023-09-18T15:58:15;24.30;99.70
47090;DHT22;32840;52.516;13.294;2023-09-18T16:01:02;24.30;99.90
47090;DHT22;32840;52.516;13.294;2023-09-18T16:03:49;24.20;99.90
47090;DHT22;32840;52.516;13.294;2023-09-18T16:06:35;24.20;99.90
47090;DHT22;32840;52.516;13.294;2023-09-18T16:09:20;24.20;99.90
47090;DHT22;32840;52.516;13.294;2023-09-18T16:12:07;24.10;99.90
47090;DHT22;32840;52.516;13.294;2023-09-18T16:14:52;24.10;99.90
47090;DHT22;32840;52.516;13.294;2023-09-18T16:17:37;24.00;99.90
47090;DHT22;32840;52.516;13.294;2023-09-18T16:20:22;23.90;99.90
47090;DHT22;32840;52.516;13.294;2023-09-18T16:23:07;23.90;99.90
47090;DHT22;32840;52.516;13.294;2023-09-18T16:25:51;23.80;99.90
47090;DHT22;32840;52.516;13.294;2023-09-18T16:28:37;23.80;99.90
47090;DHT22;32840;52.516;13.294;2023-09-18T16:31:21;23.70;99.90
47090;DHT22;32840;52.516;13.294;2023-09-18T16:34:06;23.60;99.90
47090;DHT22;32840;52.516;13.294;2023-09-18T16:36:52;23.60;99.90
47090;DHT22;32840;52.516;13.294;2023-09-18T16:39:37;23.50;99.90
47090;DHT22;32840;52.516;13.294;2023-09-18T16:42:22;23.40;99.90
47090;DHT22;32840;52.516;13.294;2023-09-18T16:45:08;23.30;99.90
47090;DHT22;32840;52.516;13.294;2023-09-18T16:47:54;23.30;99.90
47090;DHT22;32840;52.516;13.294;2023-09-18T16:50:42;23.30;99.90
47090;DHT22;32840;52.516;13.294;2023-09-18T16:53:28;23.30;99.90
47090;DHT22;32840;52.516;13.294;2023-09-18T16:56:13;23.20;99.90
47090;DHT22;32840;52.516;13.294;2023-09-18T16:58:59;23.20;99.90
47090;DHT22;32840;52.516;13.294;2023-09-18T17:01:44;23.20;99.90
47090;DHT22;32840;52.516;13.294;2023-09-18T17:04:30;23.20;99.90
47090;DHT22;32840;52.516;13.294;2023-09-18T17:07:15;23.10;99.90
47090;DHT22;32840;52.516;13.294;2023-09-18T17:10:04;23.00;99.90
47090;DHT22;32840;52.516;13.294;2023-09-18T17:12:50;23.00;99.90
47090;DHT22;32840;52.516;13.294;2023-09-18T17:15:35;23.00;99.90
47090;DHT22;32840;52.516;13.294;2023-09-18T17:18:20;22.90;99.90
47090;DHT22;32840;52.516;13.294;2023-09-18T17:21:05;22.90;99.90
47090;DHT22;32840;52.516;13.294;2023-09-18T17:23:51;22.80;99.90